sensor_id;sensor_type;location;lat;lon;timestamp;pressure;altitude;pressure_sealevel;temperature;humidity
75991;BME280;64673;52.276;10.560;2024-01-06T00:01:24;99444.94;;;3.66;100.00
75991;BME280;64673;52.276;10.560;2024-01-06T00:03:49;99447.97;;;3.75;100.00
75991;BME280;64673;52.276;10.560;2024-01-06T00:06:14;99445.03;;;3.76;100.00
75991;BME280;64673;52.276;10.560;2024-01-06T00:08:40;99438.09;;;3.75;100.00
75991;BME280;64673;52.276;10.560;2024-01-06T00:11:05;99443.13;;;3.72;100.00
75991;BME280;64673;52.276;10.560;2024-01-06T00:13:31;99448.97;;;3.68;100.00
75991;BME280;64673;52.276;10.560;2024-01-06T00:15:56;99437.19;;;3.64;100.00
75991;BME280;64673;52.276;10.560;2024-01-06T00:18:21;99444.06;;;3.60;100.00
75991;BME280;64673;52.276;10.560;2024-01-06T00:20:47;99441.47;;;3.65;100.00
75991;BME280;64673;52.276;10.560;2024-01-06T00:23:12;99450.53;;;3.64;100.00
75991;BME280;64673;52.276;10.560;2024-01-06T00:25:37;99447.22;;;3.79;100.00
75991;BME280;64673;52.276;10.560;2024-01-06T00:28:03;99449.56;;;3.76;100.00
75991;BME280;64673;52.276;10.560;2024-01-06T00:30:28;99454.88;;;3.71;100.00
75991;BME280;64673;52.276;10.560;2024-01-06T00:32:53;99454.25;;;3.63;100.00
75991;BME280;64673;52.276;10.560;2024-01-06T00:35:19;99456.09;;;3.63;100.00
75991;BME280;64673;52.276;10.560;2024-01-06T00:37:44;99455.81;;;3.59;100.00
75991;BME280;64673;52.276;10.560;2024-01-06T00:40:10;99454.72;;;3.60;100.00
75991;BME280;64673;52.276;10.560;2024-01-06T00:42:35;99452.03;;;3.55;100.00
75991;BME280;64673;52.276;10.560;2024-01-06T00:45:01;99454.72;;;3.60;100.00
75991;BME280;64673;52.276;10.560;2024-01-06T00:47:26;99460.84;;;3.56;100.00
75991;BME280;64673;52.276;10.560;2024-01-06T00:49:51;99452.38;;;3.64;100.00
75991;BME280;64673;52.276;10.560;2024-01-06T00:52:17;99457.59;;;3.54;100.00
75991;BME280;64673;52.276;10.560;2024-01-06T00:54:42;99469.06;;;3.54;100.00
75991;BME280;64673;52.276;10.560;2024-01-06T00:57:07;99464.75;;;3.48;100.00
75991;BME280;64673;52.276;10.560;2024-01-06T00:59:33;99475.91;;;3.45;100.00
75991;BME280;64673;52.276;10.560;2024-01-06T01:01:58;99479.06;;;3.42;100.00
75991;BME280;64673;52.276;10.560;2024-01-06T01:04:23;99483.78;;;3.35;100.00
75991;BME280;64673;52.276;10.560;2024-01-06T01:06:49;99489.84;;;3.30;100.00
75991;BME280;64673;52.276;10.560;2024-01-06T01:09:14;99481.00;;;3.25;100.00
75991;BME280;64673;52.276;10.560;2024-01-06T01:11:40;99486.25;;;3.20;100.00
75991;BME280;64673;52.276;10.560;2024-01-06T01:14:06;99486.81;;;3.22;100.00
75991;BME280;64673;52.276;10.560;2024-01-06T01:16:31;99488.44;;;3.23;100.00
75991;BME280;64673;52.276;10.560;2024-01-06T01:18:58;99488.44;;;3.23;100.00
75991;BME280;64673;52.276;10.560;2024-01-06T01:21:23;99488.78;;;3.10;100.00
75991;BME280;64673;52.276;10.560;2024-01-06T01:23:48;99494.13;;;3.10;100.00
75991;BME280;64673;52.276;10.560;2024-01-06T01:26:14;99502.66;;;3.12;100.00
75991;BME280;64673;52.276;10.560;2024-01-06T01:28:39;99513.91;;;3.14;100.00
75991;BME280;64673;52.276;10.560;2024-01-06T01:31:04;99498.97;;;3.13;100.00
75991;BME280;64673;52.276;10.560;2024-01-06T01:33:30;99509.00;;;3.06;100.00
75991;BME280;64673;52.276;10.560;2024-01-06T01:35:55;99510.78;;;3.22;100.00
75991;BME280;64673;52.276;10.560;2024-01-06T01:38:20;99515.75;;;3.13;100.00
75991;BME280;64673;52.276;10.560;2024-01-06T01:40:46;99509.63;;;3.13;100.00
75991;BME280;64673;52.276;10.560;2024-01-06T01:43:21;99524.97;;;3.06;100.00
75991;BME280;64673;52.276;10.560;2024-01-06T01:45:50;99508.06;;;2.95;100.00
75991;BME280;64673;52.276;10.560;2024-01-06T01:48:17;99522.78;;;3.03;100.00
75991;BME280;64673;52.276;10.560;2024-01-06T01:50:42;99521.41;;;3.00;100.00
75991;BME280;64673;52.276;10.560;2024-01-06T01:53:07;99524.56;;;3.14;100.00
75991;BME280;64673;52.276;10.560;2024-01-06T01:55:33;99524.47;;;3.09;100.00
75991;BME280;64673;52.276;10.560;2024-01-06T01:57:58;99518.84;;;3.05;100.00
75991;BME280;64673;52.276;10.560;2024-01-06T02:00:24;99523.03;;;3.01;100.00
75991;BME280;64673;52.276;10.560;2024-01-06T02:02:49;99528.47;;;2.89;100.00
75991;BME280;64673;52.276;10.560;2024-01-06T02:05:14;99525.00;;;2.89;100.00
75991;BME280;64673;52.276;10.560;2024-01-06T02:07:40;99525.81;;;2.89;100.00
75991;BME280;64673;52.276;10.560;2024-01-06T02:10:06;99522.09;;;2.90;100.00
75991;BME280;64673;52.276;10.560;2024-01-06T02:12:31;99530.31;;;2.89;100.00
75991;BME280;64673;52.276;10.560;2024-01-06T02:14:57;99528.47;;;2.89;100.00
75991;BME280;64673;52.276;10.560;2024-01-06T02:17:22;99537.19;;;2.85;100.00
75991;BME280;64673;52.276;10.560;2024-01-06T02:19:49;99531.59;;;2.86;100.00
75991;BME280;64673;52.276;10.560;2024-01-06T02:22:14;99537.72;;;3.04;100.00
75991;BME280;64673;52.276;10.560;2024-01-06T02:24:40;99529.50;;;2.88;100.00
75991;BME280;64673;52.276;10.560;2024-01-06T02:27:06;99539.25;;;3.00;100.00
75991;BME280;64673;52.276;10.560;2024-01-06T02:29:31;99538.06;;;2.90;100.00
75991;BME280;64673;52.276;10.560;2024-01-06T02:31:56;99543.41;;;2.90;100.00
75991;BME280;64673;52.276;10.560;2024-01-06T02:34:23;99544.38;;;2.84;100.00
75991;BME280;64673;52.276;10.560;2024-01-06T02:36:48;99550.91;;;2.93;100.00
75991;BME280;64673;52.276;10.560;2024-01-06T02:39:13;99545.81;;;2.92;100.00
75991;BME280;64673;52.276;10.560;2024-01-06T02:41:39;99549.75;;;2.89;100.00
75991;BME280;64673;52.276;10.560;2024-01-06T02:44:04;99550.16;;;2.98;100.00
75991;BME280;64673;52.276;10.560;2024-01-06T02:46:30;99558.31;;;2.91;100.00
75991;BME280;64673;52.276;10.560;2024-01-06T02:48:55;99555.50;;;2.81;100.00
75991;BME280;64673;52.276;10.560;2024-01-06T02:51:20;99555.34;;;2.88;100.00
75991;BME280;64673;52.276;10.560;2024-01-06T02:53:46;99556.38;;;2.87;100.00
75991;BME280;64673;52.276;10.560;2024-01-06T02:56:11;99562.03;;;2.90;100.00
75991;BME280;64673;52.276;10.560;2024-01-06T02:58:37;99565.25;;;2.92;100.00
75991;BME280;64673;52.276;10.560;2024-01-06T03:01:02;99571.66;;;2.75;100.00
75991;BME280;64673;52.276;10.560;2024-01-06T03:03:28;99567.78;;;2.82;100.00
75991;BME280;64673;52.276;10.560;2024-01-06T03:05:53;99565.75;;;2.73;100.00
75991;BME280;64673;52.276;10.560;2024-01-06T03:08:18;99568.09;;;2.69;100.00
75991;BME280;64673;52.276;10.560;2024-01-06T03:10:44;99581.50;;;2.74;100.00
75991;BME280;64673;52.276;10.560;2024-01-06T03:13:09;99577.28;;;2.78;100.00
75991;BME280;64673;52.276;10.560;2024-01-06T03:15:34;99580.28;;;2.82;100.00
75991;BME280;64673;52.276;10.560;2024-01-06T03:18:00;99574.88;;;2.77;100.00
75991;BME280;64673;52.276;10.560;2024-01-06T03:20:25;99586.31;;;2.77;100.00
75991;BME280;64673;52.276;10.560;2024-01-06T03:22:50;99586.75;;;2.86;100.00
75991;BME280;64673;52.276;10.560;2024-01-06T03:25:16;99586.41;;;2.82;100.00
75991;BME280;64673;52.276;10.560;2024-01-06T03:27:41;99583.28;;;2.85;100.00
75991;BME280;64673;52.276;10.560;2024-01-06T03:30:07;99569.22;;;2.73;100.00
75991;BME280;64673;52.276;10.560;2024-01-06T03:32:32;99581.66;;;2.84;100.00
75991;BME280;64673;52.276;10.560;2024-01-06T03:34:57;99583.59;;;2.72;100.00
75991;BME280;64673;52.276;10.560;2024-01-06T03:37:23;99580.28;;;2.82;100.00
75991;BME280;64673;52.276;10.560;2024-01-06T03:39:48;99578.75;;;2.86;100.00
75991;BME280;64673;52.276;10.560;2024-01-06T03:42:13;99581.00;;;2.77;100.00
75991;BME280;64673;52.276;10.560;2024-01-06T03:44:39;99589.06;;;2.82;100.00
75991;BME280;64673;52.276;10.560;2024-01-06T03:47:04;99591.75;;;2.82;100.00
75991;BME280;64673;52.276;10.560;2024-01-06T03:49:30;99589.66;;;2.84;100.00
75991;BME280;64673;52.276;10.560;2024-01-06T03:51:55;99597.47;;;2.74;100.00
75991;BME280;64673;52.276;10.560;2024-01-06T03:54:21;99596.59;;;2.85;100.00
75991;BME280;64673;52.276;10.560;2024-01-06T03:56:47;99606.34;;;2.80;100.00
75991;BME280;64673;52.276;10.560;2024-01-06T03:59:13;99588.34;;;2.87;100.00
75991;BME280;64673;52.276;10.560;2024-01-06T04:01:38;99594.81;;;2.74;100.00
75991;BME280;64673;52.276;10.560;2024-01-06T04:04:03;99600.63;;;2.71;100.00
75991;BME280;64673;52.276;10.560;2024-01-06T04:06:29;99601.31;;;2.67;100.00
75991;BME280;64673;52.276;10.560;2024-01-06T04:08:57;99602.13;;;2.67;100.00
75991;BME280;64673;52.276;10.560;2024-01-06T04:11:22;99608.03;;;2.69;100.00
75991;BME280;64673;52.276;10.560;2024-01-06T04:13:47;99606.97;;;2.70;100.00
75991;BME280;64673;52.276;10.560;2024-01-06T04:16:13;99616.66;;;2.76;100.00
75991;BME280;64673;52.276;10.560;2024-01-06T04:18:38;99611.31;;;2.76;100.00
75991;BME280;64673;52.276;10.560;2024-01-06T04:21:04;99620.63;;;2.74;100.00
75991;BME280;64673;52.276;10.560;2024-01-06T04:23:30;99614.41;;;2.68;100.00
75991;BME280;64673;52.276;10.560;2024-01-06T04:25:55;99626.25;;;2.77;100.00
75991;BME280;64673;52.276;10.560;2024-01-06T04:28:21;99631.81;;;2.76;100.00
75991;BME280;64673;52.276;10.560;2024-01-06T04:30:46;99630.63;;;2.83;100.00
75991;BME280;64673;52.276;10.560;2024-01-06T04:33:11;99628.91;;;2.77;100.00
75991;BME280;64673;52.276;10.560;2024-01-06T04:35:37;99633.13;;;2.73;100.00
75991;BME280;64673;52.276;10.560;2024-01-06T04:38:02;99637.94;;;2.76;100.00
75991;BME280;64673;52.276;10.560;2024-01-06T04:40:27;99639.34;;;2.79;100.00
75991;BME280;64673;52.276;10.560;2024-01-06T04:42:53;99638.44;;;2.90;100.00
75991;BME280;64673;52.276;10.560;2024-01-06T04:45:18;99644.25;;;2.70;100.00
75991;BME280;64673;52.276;10.560;2024-01-06T04:47:44;99641.50;;;2.65;100.00
75991;BME280;64673;52.276;10.560;2024-01-06T04:50:10;99654.09;;;2.70;100.00
75991;BME280;64673;52.276;10.560;2024-01-06T04:52:35;99650.47;;;2.76;100.00
75991;BME280;64673;52.276;10.560;2024-01-06T04:55:01;99650.97;;;2.73;100.00
75991;BME280;64673;52.276;10.560;2024-01-06T04:57:27;99651.19;;;2.71;100.00
75991;BME280;64673;52.276;10.560;2024-01-06T04:59:52;99656.03;;;2.74;100.00
75991;BME280;64673;52.276;10.560;2024-01-06T05:02:18;99655.94;;;2.69;100.00
75991;BME280;64673;52.276;10.560;2024-01-06T05:04:43;99664.03;;;2.74;100.00
75991;BME280;64673;52.276;10.560;2024-01-06T05:07:09;99662.59;;;2.55;100.00
75991;BME280;64673;52.276;10.560;2024-01-06T05:09:34;99673.94;;;2.62;100.00
75991;BME280;64673;52.276;10.560;2024-01-06T05:11:59;99675.56;;;2.63;100.00
75991;BME280;64673;52.276;10.560;2024-01-06T05:14:25;99679.50;;;2.61;100.00
75991;BME280;64673;52.276;10.560;2024-01-06T05:16:50;99677.41;;;2.63;100.00
75991;BME280;64673;52.276;10.560;2024-01-06T05:19:15;99680.38;;;2.66;100.00
75991;BME280;64673;52.276;10.560;2024-01-06T05:21:46;99675.56;;;2.63;100.00
75991;BME280;64673;52.276;10.560;2024-01-06T05:24:11;99678.75;;;2.65;100.00
75991;BME280;64673;52.276;10.560;2024-01-06T05:26:36;99682.50;;;2.64;100.00
75991;BME280;64673;52.276;10.560;2024-01-06T05:29:02;99688.00;;;2.74;100.00
75991;BME280;64673;52.276;10.560;2024-01-06T05:31:28;99682.66;;;2.74;100.00
75991;BME280;64673;52.276;10.560;2024-01-06T05:33:53;99681.69;;;2.80;100.00
75991;BME280;64673;52.276;10.560;2024-01-06T05:36:19;99696.13;;;2.68;100.00
75991;BME280;64673;52.276;10.560;2024-01-06T05:38:45;99699.59;;;2.68;100.00
75991;BME280;64673;52.276;10.560;2024-01-06T05:41:10;99702.59;;;2.72;100.00
75991;BME280;64673;52.276;10.560;2024-01-06T05:43:36;99703.47;;;2.77;100.00
75991;BME280;64673;52.276;10.560;2024-01-06T05:46:01;99699.75;;;2.78;100.00
75991;BME280;64673;52.276;10.560;2024-01-06T05:48:26;99716.13;;;2.70;100.00
75991;BME280;64673;52.276;10.560;2024-01-06T05:50:52;99721.63;;;2.64;100.00
75991;BME280;64673;52.276;10.560;2024-01-06T05:53:17;99721.34;;;2.65;100.00
75991;BME280;64673;52.276;10.560;2024-01-06T05:55:43;99725.09;;;2.64;100.00
75991;BME280;64673;52.276;10.560;2024-01-06T05:58:09;99726.66;;;2.65;100.00
75991;BME280;64673;52.276;10.560;2024-01-06T06:00:34;99736.84;;;2.68;100.00
75991;BME280;64673;52.276;10.560;2024-01-06T06:02:59;99736.19;;;2.61;100.00
75991;BME280;64673;52.276;10.560;2024-01-06T06:05:25;99739.91;;;2.60;100.00
75991;BME280;64673;52.276;10.560;2024-01-06T06:07:51;99733.31;;;2.63;100.00
75991;BME280;64673;52.276;10.560;2024-01-06T06:10:17;99733.19;;;2.57;100.00
75991;BME280;64673;52.276;10.560;2024-01-06T06:12:44;99736.44;;;2.60;100.00
75991;BME280;64673;52.276;10.560;2024-01-06T06:15:11;99741.19;;;2.57;100.00
75991;BME280;64673;52.276;10.560;2024-01-06T06:17:36;99754.25;;;2.59;100.00
75991;BME280;64673;52.276;10.560;2024-01-06T06:20:02;99750.78;;;2.58;100.00
75991;BME280;64673;52.276;10.560;2024-01-06T06:22:28;99753.47;;;2.47;100.00
75991;BME280;64673;52.276;10.560;2024-01-06T06:24:57;99769.56;;;2.52;100.00
75991;BME280;64673;52.276;10.560;2024-01-06T06:27:23;99762.38;;;2.52;100.00
75991;BME280;64673;52.276;10.560;2024-01-06T06:29:48;99767.09;;;2.62;100.00
75991;BME280;64673;52.276;10.560;2024-01-06T06:32:14;99774.16;;;2.56;100.00
75991;BME280;64673;52.276;10.560;2024-01-06T06:34:39;99776.75;;;2.51;100.00
75991;BME280;64673;52.276;10.560;2024-01-06T06:37:04;99776.63;;;2.46;100.00
75991;BME280;64673;52.276;10.560;2024-01-06T06:39:31;99781.13;;;2.46;100.00
75991;BME280;64673;52.276;10.560;2024-01-06T06:41:57;99785.53;;;2.52;100.00
75991;BME280;64673;52.276;10.560;2024-01-06T06:44:22;99794.31;;;2.52;100.00
75991;BME280;64673;52.276;10.560;2024-01-06T06:46:48;99795.38;;;2.51;100.00
75991;BME280;64673;52.276;10.560;2024-01-06T06:49:14;99799.13;;;2.67;100.00
75991;BME280;64673;52.276;10.560;2024-01-06T06:51:39;99803.78;;;2.60;100.00
75991;BME280;64673;52.276;10.560;2024-01-06T06:54:11;99815.25;;;2.61;100.00
75991;BME280;64673;52.276;10.560;2024-01-06T06:56:37;99809.13;;;2.60;100.00
75991;BME280;64673;52.276;10.560;2024-01-06T06:59:02;99815.00;;;2.62;100.00
75991;BME280;64673;52.276;10.560;2024-01-06T07:01:28;99808.88;;;2.62;100.00
75991;BME280;64673;52.276;10.560;2024-01-06T07:03:53;99817.56;;;2.57;100.00
75991;BME280;64673;52.276;10.560;2024-01-06T07:06:19;99818.50;;;2.51;100.00
75991;BME280;64673;52.276;10.560;2024-01-06T07:08:44;99827.16;;;2.58;100.00
75991;BME280;64673;52.276;10.560;2024-01-06T07:11:10;99827.97;;;2.58;100.00
75991;BME280;64673;52.276;10.560;2024-01-06T07:13:36;99821.63;;;2.48;100.00
75991;BME280;64673;52.276;10.560;2024-01-06T07:16:02;99831.91;;;2.56;100.00
75991;BME280;64673;52.276;10.560;2024-01-06T07:18:27;99836.56;;;2.49;100.00
75991;BME280;64673;52.276;10.560;2024-01-06T07:20:52;99835.97;;;2.47;100.00
75991;BME280;64673;52.276;10.560;2024-01-06T07:23:18;99844.31;;;2.50;100.00
75991;BME280;64673;52.276;10.560;2024-01-06T07:25:43;99850.81;;;2.43;100.00
75991;BME280;64673;52.276;10.560;2024-01-06T07:28:08;99848.25;;;2.36;100.00
75991;BME280;64673;52.276;10.560;2024-01-06T07:30:34;99859.03;;;2.41;100.00
75991;BME280;64673;52.276;10.560;2024-01-06T07:32:59;99859.84;;;2.42;100.00
75991;BME280;64673;52.276;10.560;2024-01-06T07:35:25;99863.06;;;2.44;100.00
75991;BME280;64673;52.276;10.560;2024-01-06T07:37:50;99865.72;;;2.44;100.00
75991;BME280;64673;52.276;10.560;2024-01-06T07:40:16;99864.44;;;2.35;100.00
75991;BME280;64673;52.276;10.560;2024-01-06T07:42:43;99864.94;;;2.32;100.00
75991;BME280;64673;52.276;10.560;2024-01-06T07:45:09;99873.25;;;2.35;100.00
75991;BME280;64673;52.276;10.560;2024-01-06T07:47:34;99883.66;;;2.37;100.00
75991;BME280;64673;52.276;10.560;2024-01-06T07:49:59;99882.75;;;2.31;100.00
75991;BME280;64673;52.276;10.560;2024-01-06T07:52:25;99883.22;;;2.40;100.00
75991;BME280;64673;52.276;10.560;2024-01-06T07:54:50;99889.91;;;2.42;100.00
75991;BME280;64673;52.276;10.560;2024-01-06T07:57:16;99898.22;;;2.46;100.00
75991;BME280;64673;52.276;10.560;2024-01-06T07:59:41;99901.34;;;2.54;100.00
75991;BME280;64673;52.276;10.560;2024-01-06T08:02:06;99907.03;;;2.46;100.00
75991;BME280;64673;52.276;10.560;2024-01-06T08:04:32;99903.22;;;2.42;100.00
75991;BME280;64673;52.276;10.560;2024-01-06T08:06:57;99908.41;;;2.49;100.00
75991;BME280;64673;52.276;10.560;2024-01-06T08:09:23;99912.00;;;2.54;100.00
75991;BME280;64673;52.276;10.560;2024-01-06T08:11:51;99915.47;;;2.55;100.00
75991;BME280;64673;52.276;10.560;2024-01-06T08:14:16;99919.41;;;2.64;100.00
75991;BME280;64673;52.276;10.560;2024-01-06T08:16:43;99923.22;;;2.56;100.00
75991;BME280;64673;52.276;10.560;2024-01-06T08:19:08;99934.00;;;2.62;100.00
75991;BME280;64673;52.276;10.560;2024-01-06T08:21:34;99946.38;;;2.56;100.00
75991;BME280;64673;52.276;10.560;2024-01-06T08:24:00;99938.88;;;2.53;100.00
75991;BME280;64673;52.276;10.560;2024-01-06T08:26:25;99945.69;;;2.49;100.00
75991;BME280;64673;52.276;10.560;2024-01-06T08:28:51;99949.97;;;2.50;100.00
75991;BME280;64673;52.276;10.560;2024-01-06T08:31:16;99952.16;;;2.53;100.00
75991;BME280;64673;52.276;10.560;2024-01-06T08:33:41;99954.25;;;2.51;100.00
75991;BME280;64673;52.276;10.560;2024-01-06T08:36:07;99954.59;;;2.43;100.00
75991;BME280;64673;52.276;10.560;2024-01-06T08:38:33;99967.78;;;2.49;100.00
75991;BME280;64673;52.276;10.560;2024-01-06T08:40:58;99966.63;;;2.57;100.00
75991;BME280;64673;52.276;10.560;2024-01-06T08:43:23;99975.09;;;2.54;100.00
75991;BME280;64673;52.276;10.560;2024-01-06T08:45:49;99975.88;;;2.54;100.00
75991;BME280;64673;52.276;10.560;2024-01-06T08:48:15;99978.31;;;2.56;100.00
75991;BME280;64673;52.276;10.560;2024-01-06T08:50:42;99979.34;;;2.55;100.00
75991;BME280;64673;52.276;10.560;2024-01-06T08:53:08;99986.53;;;2.54;100.00
75991;BME280;64673;52.276;10.560;2024-01-06T08:55:33;99985.25;;;2.57;100.00
75991;BME280;64673;52.276;10.560;2024-01-06T08:57:58;99989.06;;;2.49;100.00
75991;BME280;64673;52.276;10.560;2024-01-06T09:00:24;99988.72;;;2.46;100.00
75991;BME280;64673;52.276;10.560;2024-01-06T09:02:49;99990.34;;;2.47;100.00
75991;BME280;64673;52.276;10.560;2024-01-06T09:05:14;99990.78;;;2.44;100.00
75991;BME280;64673;52.276;10.560;2024-01-06T09:07:40;100004.25;;;2.49;100.00
75991;BME280;64673;52.276;10.560;2024-01-06T09:10:05;100009.91;;;2.52;100.00
75991;BME280;64673;52.276;10.560;2024-01-06T09:12:30;100014.19;;;2.42;100.00
75991;BME280;64673;52.276;10.560;2024-01-06T09:14:56;100018.78;;;2.35;100.00
75991;BME280;64673;52.276;10.560;2024-01-06T09:17:21;100017.88;;;2.41;100.00
75991;BME280;64673;52.276;10.560;2024-01-06T09:19:47;100016.34;;;2.33;100.00
75991;BME280;64673;52.276;10.560;2024-01-06T09:22:13;100027.34;;;2.37;100.00
75991;BME280;64673;52.276;10.560;2024-01-06T09:24:40;100033.03;;;2.40;100.00
75991;BME280;64673;52.276;10.560;2024-01-06T09:27:05;100031.28;;;2.34;100.00
75991;BME280;64673;52.276;10.560;2024-01-06T09:29:30;100042.19;;;2.33;100.00
75991;BME280;64673;52.276;10.560;2024-01-06T09:31:56;100042.19;;;2.33;100.00
75991;BME280;64673;52.276;10.560;2024-01-06T09:34:21;100053.84;;;2.32;100.00
75991;BME280;64673;52.276;10.560;2024-01-06T09:36:46;100056.16;;;2.28;100.00
75991;BME280;64673;52.276;10.560;2024-01-06T09:39:12;100058.59;;;2.30;100.00
75991;BME280;64673;52.276;10.560;2024-01-06T09:41:40;100065.41;;;2.37;100.00
75991;BME280;64673;52.276;10.560;2024-01-06T09:44:05;100069.03;;;2.43;100.00
75991;BME280;64673;52.276;10.560;2024-01-06T09:46:31;100069.84;;;2.43;100.00
75991;BME280;64673;52.276;10.560;2024-01-06T09:48:58;100075.66;;;2.52;100.00
75991;BME280;64673;52.276;10.560;2024-01-06T09:51:24;100064.03;;;2.35;100.00
75991;BME280;64673;52.276;10.560;2024-01-06T09:56:21;100070.84;;;2.31;100.00
75991;BME280;64673;52.276;10.560;2024-01-06T09:58:48;100065.16;;;2.27;100.00
75991;BME280;64673;52.276;10.560;2024-01-06T10:01:14;100066.91;;;2.22;100.00
75991;BME280;64673;52.276;10.560;2024-01-06T10:03:40;100067.38;;;2.30;100.00
75991;BME280;64673;52.276;10.560;2024-01-06T10:06:05;100079.94;;;2.23;100.00
75991;BME280;64673;52.276;10.560;2024-01-06T10:08:31;100084.13;;;2.19;100.00
75991;BME280;64673;52.276;10.560;2024-01-06T10:11:00;100092.13;;;2.31;100.00
75991;BME280;64673;52.276;10.560;2024-01-06T10:13:25;100078.13;;;2.35;100.00
75991;BME280;64673;52.276;10.560;2024-01-06T10:15:51;100079.28;;;2.28;100.00
75991;BME280;64673;52.276;10.560;2024-01-06T10:18:16;100080.69;;;2.30;100.00
75991;BME280;64673;52.276;10.560;2024-01-06T10:20:44;100082.66;;;2.35;100.00
75991;BME280;64673;52.276;10.560;2024-01-06T10:23:10;100082.97;;;2.27;100.00
75991;BME280;64673;52.276;10.560;2024-01-06T10:25:35;100088.44;;;2.32;100.00
75991;BME280;64673;52.276;10.560;2024-01-06T10:28:01;100091.09;;;2.32;100.00
75991;BME280;64673;52.276;10.560;2024-01-06T10:30:29;100096.72;;;2.24;100.00
75991;BME280;64673;52.276;10.560;2024-01-06T10:32:54;100098.00;;;2.21;100.00
75991;BME280;64673;52.276;10.560;2024-01-06T10:35:20;100106.22;;;2.19;100.00
75991;BME280;64673;52.276;10.560;2024-01-06T10:37:48;100109.47;;;2.22;100.00
75991;BME280;64673;52.276;10.560;2024-01-06T10:40:15;100108.88;;;2.19;100.00
75991;BME280;64673;52.276;10.560;2024-01-06T10:42:42;100112.69;;;2.24;100.00
75991;BME280;64673;52.276;10.560;2024-01-06T10:45:14;100112.78;;;2.17;100.00
75991;BME280;64673;52.276;10.560;2024-01-06T10:47:41;100115.34;;;2.24;100.00
75991;BME280;64673;52.276;10.560;2024-01-06T10:50:09;100119.16;;;2.16;100.00
75991;BME280;64673;52.276;10.560;2024-01-06T10:52:37;100116.16;;;2.24;100.00
75991;BME280;64673;52.276;10.560;2024-01-06T10:55:04;100115.22;;;2.18;100.00
75991;BME280;64673;52.276;10.560;2024-01-06T10:57:30;100115.44;;;2.17;100.00
75991;BME280;64673;52.276;10.560;2024-01-06T10:59:58;100112.03;;;1.98;100.00
75991;BME280;64673;52.276;10.560;2024-01-06T11:02:24;100124.28;;;1.99;100.00
75991;BME280;64673;52.276;10.560;2024-01-06T11:04:50;100122.50;;;1.93;100.00
75991;BME280;64673;52.276;10.560;2024-01-06T11:07:17;100118.81;;;1.94;100.00
75991;BME280;64673;52.276;10.560;2024-01-06T11:09:50;100120.00;;;1.98;100.00
75991;BME280;64673;52.276;10.560;2024-01-06T11:12:18;100125.75;;;1.95;100.00
75991;BME280;64673;52.276;10.560;2024-01-06T11:14:44;100114.69;;;1.98;100.00
75991;BME280;64673;52.276;10.560;2024-01-06T11:17:11;100123.00;;;2.02;100.00
75991;BME280;64673;52.276;10.560;2024-01-06T11:24:51;100116.75;;;1.96;100.00
75991;BME280;64673;52.276;10.560;2024-01-06T11:27:25;100115.13;;;1.95;100.00
75991;BME280;64673;52.276;10.560;2024-01-06T11:29:58;100117.06;;;1.88;100.00
75991;BME280;64673;52.276;10.560;2024-01-06T11:32:29;100110.03;;;1.75;100.00
75991;BME280;64673;52.276;10.560;2024-01-06T11:34:59;100113.66;;;1.81;100.00
75991;BME280;64673;52.276;10.560;2024-01-06T11:40:16;100115.00;;;1.72;100.00
75991;BME280;64673;52.276;10.560;2024-01-06T11:45:31;100117.66;;;1.72;100.00
75991;BME280;64673;52.276;10.560;2024-01-06T11:47:59;100123.63;;;1.86;100.00
75991;BME280;64673;52.276;10.560;2024-01-06T11:50:33;100125.63;;;1.72;100.00
75991;BME280;64673;52.276;10.560;2024-01-06T11:52:59;100136.63;;;1.75;100.00
75991;BME280;64673;52.276;10.560;2024-01-06T11:55:28;100132.84;;;1.83;100.00
75991;BME280;64673;52.276;10.560;2024-01-06T11:57:54;100131.41;;;1.69;100.00
75991;BME280;64673;52.276;10.560;2024-01-06T12:00:21;100132.22;;;1.69;100.00
75991;BME280;64673;52.276;10.560;2024-01-06T12:02:47;100140.84;;;1.65;100.00
75991;BME280;64673;52.276;10.560;2024-01-06T12:05:18;100147.41;;;1.62;100.00
75991;BME280;64673;52.276;10.560;2024-01-06T12:07:54;100143.63;;;1.70;100.00
75991;BME280;64673;52.276;10.560;2024-01-06T12:10:21;100140.16;;;1.51;100.00
75991;BME280;64673;52.276;10.560;2024-01-06T12:13:06;100138.19;;;1.65;100.00
75991;BME280;64673;52.276;10.560;2024-01-06T12:15:34;100144.53;;;1.64;100.00
75991;BME280;64673;52.276;10.560;2024-01-06T12:18:03;100141.28;;;1.62;100.00
75991;BME280;64673;52.276;10.560;2024-01-06T12:20:32;100138.31;;;1.70;100.00
75991;BME280;64673;52.276;10.560;2024-01-06T12:22:57;100142.69;;;1.64;100.00
75991;BME280;64673;52.276;10.560;2024-01-06T12:25:24;100140.97;;;1.70;100.00
75991;BME280;64673;52.276;10.560;2024-01-06T12:27:50;100139.66;;;1.61;100.00
75991;BME280;64673;52.276;10.560;2024-01-06T12:30:18;100144.69;;;1.69;100.00
75991;BME280;64673;52.276;10.560;2024-01-06T12:32:48;100151.47;;;1.65;100.00
75991;BME280;64673;52.276;10.560;2024-01-06T12:35:15;100150.56;;;1.53;100.00
75991;BME280;64673;52.276;10.560;2024-01-06T12:37:42;100156.06;;;1.58;100.00
75991;BME280;64673;52.276;10.560;2024-01-06T12:40:12;100152.81;;;1.56;100.00
75991;BME280;64673;52.276;10.560;2024-01-06T12:42:38;100161.38;;;1.58;100.00
75991;BME280;64673;52.276;10.560;2024-01-06T12:45:05;100165.06;;;1.57;100.00
75991;BME280;64673;52.276;10.560;2024-01-06T12:47:31;100165.91;;;1.51;100.00
75991;BME280;64673;52.276;10.560;2024-01-06T12:49:56;100157.53;;;1.54;100.00
75991;BME280;64673;52.276;10.560;2024-01-06T12:52:22;100162.66;;;1.48;100.00
75991;BME280;64673;52.276;10.560;2024-01-06T12:54:47;100165.09;;;1.50;100.00